Time;durP1;ratioP1;P1;durP2;ratioP2;P2;SDS_P1;SDS_P2;PMS_P1;PMS_P2;Temp;Humidity;BMP_temperature;BMP_pressure;BME280_temperature;BME280_humidity;BME280_pressure;Samples;Min_cycle;Max_cycle;Signal;HPM_P1;HPM_P2
2021/12/09 00:01:26;;;;;;;9.33;4.63;;;3.50;99.90;;;;;;5038810;28;20270;-53
2021/12/09 00:04:00;;;;;;;11.47;4.23;;;3.50;99.90;;;;;;5036674;28;20544;-54
2021/12/09 00:06:29;;;;;;;9.33;4.70;;;3.40;99.90;;;;;;5034743;28;20299;-51
2021/12/09 00:09:00;;;;;;;7.87;4.50;;;3.50;99.90;;;;;;5037470;28;20211;-51
2021/12/09 00:11:29;;;;;;;9.27;4.20;;;3.60;99.90;;;;;;5037966;28;20774;-53
2021/12/09 00:13:56;;;;;;;6.70;4.30;;;3.50;99.90;;;;;;5021567;28;20212;-51
2021/12/09 00:16:23;;;;;;;9.30;4.20;;;3.40;99.90;;;;;;5037272;28;20211;-53
2021/12/09 00:18:51;;;;;;;7.07;4.40;;;3.40;99.90;;;;;;5033439;28;20215;-55
2021/12/09 00:21:17;;;;;;;10.30;4.50;;;3.40;99.90;;;;;;5037652;28;20656;-53
2021/12/09 00:23:44;;;;;;;9.00;4.60;;;3.30;99.90;;;;;;5037675;28;20232;-52
2021/12/09 00:26:11;;;;;;;9.10;4.13;;;3.30;99.90;;;;;;5032963;28;20662;-54
2021/12/09 00:28:38;;;;;;;9.20;4.53;;;3.20;99.90;;;;;;5037475;28;20274;-54
2021/12/09 00:31:07;;;;;;;10.97;4.93;;;3.30;99.90;;;;;;5035183;28;20652;-56
2021/12/09 00:33:40;;;;;;;12.63;4.60;;;3.30;99.90;;;;;;5035936;28;20231;-53
2021/12/09 00:36:08;;;;;;;6.87;4.07;;;3.40;99.90;;;;;;5036105;28;20200;-52
2021/12/09 00:38:41;;;;;;;6.80;4.33;;;3.30;99.90;;;;;;5035728;28;20834;-52
2021/12/09 00:41:13;;;;;;;6.83;4.47;;;3.30;99.90;;;;;;5035298;28;20301;-53
2021/12/09 00:43:42;;;;;;;9.37;4.57;;;3.40;99.90;;;;;;5035778;28;20254;-54
2021/12/09 00:46:10;;;;;;;10.27;4.43;;;3.30;99.90;;;;;;5035005;28;20236;-55
2021/12/09 00:48:37;;;;;;;9.63;4.33;;;3.40;99.90;;;;;;5032518;28;20315;-55
2021/12/09 00:51:06;;;;;;;9.90;4.43;;;3.20;99.90;;;;;;5033336;28;20302;-53
2021/12/09 00:53:34;;;;;;;10.77;5.23;;;3.20;99.90;;;;;;5031577;28;20231;-54
2021/12/09 00:56:04;;;;;;;8.77;4.63;;;3.30;99.90;;;;;;5035202;28;20327;-53
2021/12/09 00:58:30;;;;;;;5.77;3.87;;;3.20;99.90;;;;;;5030095;28;20261;-54
2021/12/09 01:00:57;;;;;;;7.97;4.20;;;3.10;99.90;;;;;;5035365;28;20705;-54
2021/12/09 01:03:25;;;;;;;10.03;4.43;;;3.20;99.90;;;;;;5032310;28;20235;-55
2021/12/09 01:05:52;;;;;;;9.87;4.73;;;3.20;99.90;;;;;;5033614;28;20379;-54
2021/12/09 01:08:38;;;;;;;7.70;4.43;;;3.30;99.90;;;;;;5034061;28;20219;-54
2021/12/09 01:11:06;;;;;;;9.90;4.43;;;3.30;99.90;;;;;;5033717;28;20204;-52
2021/12/09 01:13:33;;;;;;;13.43;4.97;;;3.30;99.90;;;;;;5031666;28;20261;-54
2021/12/09 01:16:00;;;;;;;10.90;4.40;;;3.30;99.90;;;;;;5032243;28;20304;-53
2021/12/09 01:18:32;;;;;;;6.57;4.47;;;3.20;99.90;;;;;;5027283;28;20223;-53
2021/12/09 01:21:00;;;;;;;7.77;4.53;;;3.20;99.90;;;;;;5031687;28;20214;-54
2021/12/09 01:23:26;;;;;;;8.47;4.87;;;3.10;99.90;;;;;;5026311;28;20295;-55
2021/12/09 01:26:02;;;;;;;9.97;5.43;;;3.10;99.90;;;;;;5022258;28;20640;-54
2021/12/09 01:28:33;;;;;;;10.70;4.67;;;3.00;99.90;;;;;;5024058;28;20248;-51
2021/12/09 01:31:03;;;;;;;7.03;4.60;;;3.00;99.90;;;;;;5016247;28;20885;-53
2021/12/09 01:33:31;;;;;;;8.03;4.60;;;3.00;99.90;;;;;;5033762;28;20568;-54
2021/12/09 01:35:59;;;;;;;7.43;4.17;;;3.00;99.90;;;;;;5031709;28;20247;-53
2021/12/09 01:38:32;;;;;;;10.57;4.17;;;3.00;99.90;;;;;;5031642;28;20219;-55
2021/12/09 01:41:00;;;;;;;7.20;4.10;;;3.00;99.90;;;;;;5033561;28;20232;-54
2021/12/09 01:43:27;;;;;;;10.10;4.60;;;3.10;99.90;;;;;;5032233;28;20208;-54
2021/12/09 01:46:04;;;;;;;9.87;4.30;;;3.10;99.90;;;;;;5033990;28;20203;-54
2021/12/09 01:48:31;;;;;;;6.77;3.60;;;3.00;99.90;;;;;;5031835;28;20231;-54
2021/12/09 01:50:58;;;;;;;6.07;3.57;;;3.00;99.90;;;;;;5034242;28;20196;-55
2021/12/09 01:53:25;;;;;;;7.47;3.90;;;3.00;99.90;;;;;;5023094;28;20703;-54
2021/12/09 01:55:55;;;;;;;7.97;3.77;;;3.10;99.90;;;;;;5036032;28;20841;-55
2021/12/09 01:58:21;;;;;;;6.90;3.80;;;3.10;99.90;;;;;;5033985;28;20662;-52
2021/12/09 02:00:48;;;;;;;8.53;3.33;;;3.00;99.90;;;;;;5035521;28;20203;-54
2021/12/09 02:03:15;;;;;;;7.37;4.03;;;3.00;99.90;;;;;;5036686;28;20771;-53
2021/12/09 02:05:43;;;;;;;7.93;4.10;;;3.00;99.90;;;;;;5031776;28;20668;-53
2021/12/09 02:08:13;;;;;;;9.33;3.90;;;3.00;99.90;;;;;;5030874;28;20220;-54
2021/12/09 02:10:45;;;;;;;11.70;4.23;;;3.00;99.90;;;;;;5031661;28;20207;-53
2021/12/09 02:13:13;;;;;;;6.00;3.93;;;3.00;99.90;;;;;;5030662;28;20223;-54
2021/12/09 02:15:40;;;;;;;7.17;3.40;;;3.10;99.90;;;;;;5030335;28;20244;-53
2021/12/09 02:18:10;;;;;;;4.63;3.53;;;3.10;99.90;;;;;;5029409;28;21082;-54
2021/12/09 02:20:38;;;;;;;5.97;3.80;;;3.00;99.90;;;;;;5031100;28;20303;-54
2021/12/09 02:23:10;;;;;;;6.80;3.37;;;3.00;99.90;;;;;;5035944;28;20629;-53
2021/12/09 02:25:44;;;;;;;10.90;4.20;;;3.10;99.90;;;;;;5020345;28;20233;-55
2021/12/09 02:28:16;;;;;;;7.77;3.73;;;3.00;99.90;;;;;;5029017;28;20215;-52
2021/12/09 02:30:43;;;;;;;12.43;3.50;;;3.00;99.90;;;;;;5029908;28;20203;-54
2021/12/09 02:33:11;;;;;;;4.97;3.23;;;3.00;99.90;;;;;;5032046;28;20200;-53
2021/12/09 02:35:38;;;;;;;11.53;3.13;;;2.90;99.90;;;;;;5031232;28;20219;-52
2021/12/09 02:38:08;;;;;;;7.07;4.10;;;2.90;99.90;;;;;;5030820;28;20209;-54
2021/12/09 02:40:36;;;;;;;4.97;3.37;;;3.00;99.90;;;;;;5031041;28;20631;-53
2021/12/09 02:43:08;;;;;;;9.73;3.23;;;3.00;99.90;;;;;;5030797;28;20659;-52
2021/12/09 02:45:37;;;;;;;6.23;3.47;;;3.00;99.90;;;;;;5032611;28;20666;-52
2021/12/09 02:48:04;;;;;;;11.37;3.77;;;3.00;99.90;;;;;;5030020;28;20304;-52
2021/12/09 02:50:32;;;;;;;6.27;3.30;;;3.00;99.90;;;;;;5032936;28;20204;-54
2021/12/09 02:52:59;;;;;;;8.10;3.37;;;3.00;99.90;;;;;;5029914;28;20215;-52
2021/12/09 02:55:26;;;;;;;12.23;3.33;;;2.90;99.90;;;;;;5022186;28;20231;-54
2021/12/09 02:57:53;;;;;;;8.03;3.63;;;3.00;99.90;;;;;;5015859;28;20196;-53
2021/12/09 03:00:21;;;;;;;7.00;3.53;;;2.90;99.90;;;;;;5013347;28;20556;-54
2021/12/09 03:02:48;;;;;;;4.53;3.27;;;2.90;99.90;;;;;;5030578;28;20548;-52
2021/12/09 03:05:17;;;;;;;7.47;3.77;;;2.90;99.90;;;;;;5032835;28;20323;-52
2021/12/09 03:07:44;;;;;;;6.43;3.37;;;2.90;99.90;;;;;;5020723;28;20292;-54
2021/12/09 03:10:24;;;;;;;7.03;3.13;;;2.90;99.90;;;;;;5033740;28;20273;-53
2021/12/09 03:12:58;;;;;;;6.07;3.00;;;3.00;99.90;;;;;;5035105;28;21162;-53
2021/12/09 03:15:25;;;;;;;5.67;3.40;;;2.90;99.90;;;;;;5035963;28;20671;-54
2021/12/09 03:17:52;;;;;;;11.87;3.17;;;2.90;99.90;;;;;;5035659;28;20310;-54
2021/12/09 03:20:20;;;;;;;6.80;3.30;;;2.90;99.90;;;;;;5018409;28;21085;-52
2021/12/09 03:22:49;;;;;;;8.17;3.33;;;2.90;99.90;;;;;;5036960;28;20660;-54
2021/12/09 03:25:18;;;;;;;6.57;3.03;;;2.90;99.90;;;;;;5035842;28;20316;-54
2021/12/09 03:27:46;;;;;;;6.13;3.83;;;2.90;99.90;;;;;;5032956;28;20295;-52
2021/12/09 03:30:16;;;;;;;6.43;3.33;;;2.90;99.90;;;;;;5034863;28;20257;-54
2021/12/09 03:32:43;;;;;;;6.77;3.40;;;3.00;99.90;;;;;;5036791;28;20205;-54
2021/12/09 03:35:12;;;;;;;7.17;3.37;;;3.00;99.90;;;;;;5034945;28;20220;-52
2021/12/09 03:37:40;;;;;;;7.57;3.63;;;2.80;99.90;;;;;;5021384;28;20625;-53
2021/12/09 03:40:09;;;;;;;8.00;3.93;;;2.90;99.90;;;;;;5034926;28;20256;-54
2021/12/09 03:42:36;;;;;;;7.63;3.40;;;2.80;99.90;;;;;;5032355;28;20235;-53
2021/12/09 03:45:05;;;;;;;8.57;3.47;;;2.80;99.90;;;;;;5016542;28;20240;-54
2021/12/09 03:47:32;;;;;;;6.07;3.03;;;2.80;99.90;;;;;;5032804;28;20200;-54
2021/12/09 03:50:01;;;;;;;6.60;3.53;;;2.90;99.90;;;;;;5032464;28;20227;-53
2021/12/09 03:52:28;;;;;;;6.67;4.00;;;2.90;99.90;;;;;;5036232;28;20297;-54
2021/12/09 03:54:56;;;;;;;6.97;3.17;;;2.90;99.90;;;;;;5034968;28;20235;-53
2021/12/09 03:57:23;;;;;;;4.00;2.80;;;2.80;99.90;;;;;;5035529;28;20711;-55
2021/12/09 03:59:50;;;;;;;8.17;3.10;;;2.90;99.90;;;;;;5031148;28;22829;-52
2021/12/09 04:02:17;;;;;;;5.77;3.20;;;2.80;99.90;;;;;;5037209;28;20254;-53
2021/12/09 04:04:44;;;;;;;10.77;3.57;;;2.80;99.90;;;;;;5032922;28;20769;-55
2021/12/09 04:07:12;;;;;;;7.20;3.37;;;2.80;99.90;;;;;;5036523;28;20200;-52
2021/12/09 04:09:39;;;;;;;5.87;3.40;;;2.80;99.90;;;;;;5034145;28;20250;-54
2021/12/09 04:12:07;;;;;;;14.77;4.67;;;2.70;99.90;;;;;;5031787;28;20240;-54
2021/12/09 04:14:34;;;;;;;12.17;3.63;;;2.70;99.90;;;;;;5032392;28;22631;-53
2021/12/09 04:17:02;;;;;;;5.53;3.40;;;2.70;99.90;;;;;;5031268;28;20204;-53
2021/12/09 04:19:29;;;;;;;6.87;3.53;;;2.70;99.90;;;;;;5030742;28;20649;-53
2021/12/09 04:21:56;;;;;;;6.00;3.53;;;2.70;99.90;;;;;;5032557;28;20241;-52
2021/12/09 04:24:23;;;;;;;8.80;4.50;;;2.70;99.90;;;;;;5034489;28;20223;-52
2021/12/09 04:26:51;;;;;;;7.80;3.20;;;2.70;99.90;;;;;;5036231;28;20605;-54
2021/12/09 04:29:19;;;;;;;9.57;3.00;;;2.70;99.90;;;;;;5036901;28;20267;-54
2021/12/09 04:31:51;;;;;;;6.20;3.27;;;2.70;99.90;;;;;;5032325;28;20287;-53
2021/12/09 04:34:19;;;;;;;9.43;3.00;;;2.70;99.90;;;;;;5033293;28;20200;-54
2021/12/09 04:36:47;;;;;;;8.77;2.70;;;2.60;99.90;;;;;;5032992;28;20208;-54
2021/12/09 04:39:14;;;;;;;8.03;2.73;;;2.70;99.90;;;;;;5034121;28;20845;-53
2021/12/09 04:41:41;;;;;;;8.20;3.27;;;2.70;99.90;;;;;;5034041;28;20590;-55
2021/12/09 04:44:09;;;;;;;7.00;3.10;;;2.70;99.90;;;;;;5030889;28;20259;-52
2021/12/09 04:46:36;;;;;;;6.27;2.63;;;2.70;99.90;;;;;;5033267;28;20587;-53
2021/12/09 04:49:06;;;;;;;8.13;3.50;;;2.70;99.90;;;;;;5031496;28;20216;-54
2021/12/09 04:51:34;;;;;;;6.57;3.00;;;2.90;99.90;;;;;;5034314;28;20236;-55
2021/12/09 04:54:03;;;;;;;5.73;3.27;;;2.80;99.90;;;;;;5035243;28;20291;-53
2021/12/09 04:56:30;;;;;;;9.10;2.93;;;2.70;99.90;;;;;;5034737;28;20286;-55
2021/12/09 04:58:57;;;;;;;5.83;2.93;;;2.80;99.90;;;;;;5033492;28;20204;-52
2021/12/09 05:01:24;;;;;;;5.80;2.63;;;2.70;99.90;;;;;;5033731;28;20323;-52
2021/12/09 05:03:52;;;;;;;8.63;2.93;;;2.70;99.90;;;;;;5033063;28;20206;-52
2021/12/09 05:06:19;;;;;;;9.67;3.17;;;2.70;99.90;;;;;;5031839;28;20222;-54
2021/12/09 05:08:48;;;;;;;8.50;3.60;;;2.70;99.90;;;;;;5033002;28;20244;-54
2021/12/09 05:11:48;;;;;;;7.70;2.60;;;2.70;99.90;;;;;;5034403;28;20246;-54
2021/12/09 05:14:19;;;;;;;6.57;3.07;;;2.70;99.90;;;;;;5032382;28;20982;-55
2021/12/09 05:16:50;;;;;;;8.23;2.83;;;2.70;99.90;;;;;;5029999;28;20200;-52
2021/12/09 05:19:17;;;;;;;7.27;2.77;;;2.70;99.90;;;;;;5030775;28;20269;-54
2021/12/09 05:21:44;;;;;;;5.03;3.33;;;2.60;99.90;;;;;;5032713;28;20236;-53
2021/12/09 05:24:14;;;;;;;9.13;3.07;;;2.60;99.90;;;;;;5032178;28;20207;-51
2021/12/09 05:26:51;;;;;;;5.87;2.50;;;2.70;99.90;;;;;;5033639;28;20232;-57
2021/12/09 05:29:28;;;;;;;6.47;2.63;;;2.80;99.90;;;;;;5030952;28;20382;-54
2021/12/09 05:32:13;;;;;;;3.37;2.07;;;2.70;99.90;;;;;;5029541;28;20330;-53
2021/12/09 05:34:50;;;;;;;6.97;2.60;;;2.70;99.90;;;;;;5029625;28;20235;-55
2021/12/09 05:37:19;;;;;;;7.63;2.80;;;2.60;99.90;;;;;;5029716;28;20298;-53
2021/12/09 05:39:47;;;;;;;6.70;3.07;;;2.60;99.90;;;;;;5030849;28;20716;-54
2021/12/09 05:42:18;;;;;;;9.87;3.33;;;2.50;99.90;;;;;;5034354;28;20348;-52
2021/12/09 05:44:46;;;;;;;6.30;3.03;;;2.50;99.90;;;;;;5032991;28;20278;-52
2021/12/09 05:47:13;;;;;;;9.63;2.80;;;2.40;99.90;;;;;;5030494;28;20299;-54
2021/12/09 05:49:43;;;;;;;4.63;2.60;;;2.40;99.90;;;;;;5031891;28;20330;-51
2021/12/09 05:52:12;;;;;;;9.57;3.00;;;2.40;99.90;;;;;;5034197;28;20204;-54
2021/12/09 05:54:39;;;;;;;7.07;2.30;;;2.40;99.90;;;;;;5033156;28;20279;-54
2021/12/09 05:57:06;;;;;;;8.10;2.33;;;2.30;99.90;;;;;;5032996;28;20286;-53
2021/12/09 05:59:33;;;;;;;5.07;2.83;;;2.30;99.90;;;;;;5031907;28;20232;-52
2021/12/09 06:02:00;;;;;;;3.97;2.23;;;2.30;99.90;;;;;;5018320;28;20211;-53
2021/12/09 06:04:27;;;;;;;7.13;2.93;;;2.30;99.90;;;;;;5030163;28;20208;-52
2021/12/09 06:06:54;;;;;;;5.50;2.60;;;2.30;99.90;;;;;;5031741;28;20207;-53
2021/12/09 06:09:21;;;;;;;5.53;2.60;;;2.40;99.90;;;;;;5032988;28;20216;-55
2021/12/09 06:11:49;;;;;;;6.83;2.07;;;2.30;99.90;;;;;;5033036;28;20755;-52
2021/12/09 06:14:17;;;;;;;8.37;3.67;;;2.40;99.90;;;;;;5031087;28;20315;-52
2021/12/09 06:16:45;;;;;;;4.10;2.60;;;2.30;99.90;;;;;;5032944;28;20204;-52
2021/12/09 06:19:12;;;;;;;5.63;2.40;;;2.30;99.90;;;;;;5028960;28;20212;-53
2021/12/09 06:21:40;;;;;;;5.63;2.73;;;2.30;99.90;;;;;;5033117;28;20291;-52
2021/12/09 06:24:07;;;;;;;10.37;3.10;;;2.30;99.90;;;;;;5031870;28;20211;-53
2021/12/09 06:26:33;;;;;;;6.33;2.57;;;2.40;99.90;;;;;;5032185;28;20690;-54
2021/12/09 06:29:00;;;;;;;5.63;2.87;;;2.40;99.90;;;;;;5021536;28;20243;-53
2021/12/09 06:31:28;;;;;;;4.10;2.00;;;2.50;99.90;;;;;;5035615;28;20228;-53
2021/12/09 06:33:55;;;;;;;4.87;2.60;;;2.50;99.90;;;;;;5032414;28;20215;-53
2021/12/09 06:36:22;;;;;;;4.17;2.00;;;2.60;99.90;;;;;;5030500;28;20223;-53
2021/12/09 06:38:49;;;;;;;6.53;2.37;;;2.50;99.90;;;;;;5029231;28;20647;-54
2021/12/09 06:41:16;;;;;;;4.87;2.40;;;2.40;99.90;;;;;;5035664;28;20582;-55
2021/12/09 06:43:43;;;;;;;4.30;2.10;;;2.30;99.90;;;;;;5035979;28;20211;-53
2021/12/09 06:46:12;;;;;;;6.33;2.50;;;2.30;99.90;;;;;;5036470;28;22298;-52
2021/12/09 06:48:40;;;;;;;6.87;2.47;;;2.30;99.90;;;;;;5034559;28;20551;-54
2021/12/09 06:51:08;;;;;;;7.43;2.50;;;2.30;99.90;;;;;;5034903;28;20653;-52
2021/12/09 06:53:36;;;;;;;8.00;2.83;;;2.30;99.90;;;;;;5040281;28;20231;-54
2021/12/09 06:56:04;;;;;;;10.17;2.53;;;2.30;99.90;;;;;;5039403;28;20322;-53
2021/12/09 06:58:31;;;;;;;5.97;2.60;;;2.40;99.90;;;;;;5038569;28;20608;-53
2021/12/09 07:01:00;;;;;;;9.07;4.00;;;2.40;99.90;;;;;;5033765;28;20223;-54
2021/12/09 07:03:28;;;;;;;4.83;2.40;;;2.40;99.90;;;;;;5037408;28;20204;-53
2021/12/09 07:05:55;;;;;;;9.20;2.73;;;2.40;99.90;;;;;;5034294;28;20697;-54
2021/12/09 07:08:22;;;;;;;5.60;2.83;;;2.40;99.90;;;;;;5035538;28;20242;-52
2021/12/09 07:10:51;;;;;;;6.93;2.63;;;2.30;99.90;;;;;;5037593;28;20231;-53
2021/12/09 07:13:18;;;;;;;4.87;2.77;;;2.40;99.90;;;;;;5030289;28;20201;-52
2021/12/09 07:15:45;;;;;;;6.03;2.37;;;2.30;99.90;;;;;;5034628;28;20298;-54
2021/12/09 07:18:12;;;;;;;4.53;2.30;;;2.40;99.90;;;;;;5036372;28;20289;-52
2021/12/09 07:20:39;;;;;;;5.93;2.50;;;2.40;99.90;;;;;;5034427;28;20197;-52
2021/12/09 07:23:06;;;;;;;8.17;2.60;;;2.30;99.90;;;;;;5033724;28;20291;-52
2021/12/09 07:25:33;;;;;;;3.90;2.30;;;2.40;99.90;;;;;;5026948;28;20202;-53
2021/12/09 07:28:00;;;;;;;6.47;2.60;;;2.40;99.90;;;;;;5035183;28;20299;-51
2021/12/09 07:30:28;;;;;;;7.37;3.10;;;2.40;99.90;;;;;;5035945;28;20247;-55
2021/12/09 07:32:56;;;;;;;9.87;3.00;;;2.40;99.90;;;;;;5032624;28;20303;-53
2021/12/09 07:35:26;;;;;;;6.63;3.10;;;2.40;99.90;;;;;;5035742;28;20200;-53
2021/12/09 07:37:53;;;;;;;4.60;3.13;;;2.30;99.90;;;;;;5031990;28;20205;-52
2021/12/09 07:40:20;;;;;;;8.07;2.63;;;2.50;99.90;;;;;;5032832;28;20323;-51
2021/12/09 07:42:47;;;;;;;6.97;3.13;;;2.50;99.90;;;;;;5034266;28;20724;-53
2021/12/09 07:45:15;;;;;;;5.87;3.20;;;2.50;99.90;;;;;;5032864;28;20335;-52
2021/12/09 07:47:43;;;;;;;11.80;3.20;;;2.40;99.90;;;;;;5019468;28;20231;-53
2021/12/09 07:50:14;;;;;;;15.17;3.57;;;2.40;99.90;;;;;;5016512;28;20353;-52
2021/12/09 07:52:42;;;;;;;7.03;3.03;;;2.50;99.90;;;;;;5030841;28;20196;-54
2021/12/09 07:55:11;;;;;;;4.87;2.57;;;2.50;99.90;;;;;;5035001;28;20256;-54
2021/12/09 07:57:39;;;;;;;6.33;3.90;;;2.50;99.90;;;;;;5031222;28;20603;-53
2021/12/09 08:00:13;;;;;;;7.77;3.40;;;2.40;99.90;;;;;;5026614;28;20212;-54
2021/12/09 08:02:41;;;;;;;5.23;3.00;;;2.40;99.90;;;;;;5017017;28;20261;-53
2021/12/09 08:05:10;;;;;;;4.73;3.00;;;2.30;99.90;;;;;;5033785;28;20268;-60
2021/12/09 08:07:37;;;;;;;11.73;3.03;;;2.30;99.90;;;;;;5031155;28;20300;-54
2021/12/09 08:10:05;;;;;;;7.60;3.20;;;2.30;99.90;;;;;;5033986;28;20362;-51
2021/12/09 08:12:32;;;;;;;6.00;3.40;;;2.30;99.90;;;;;;5032918;28;20192;-54
2021/12/09 08:15:19;;;;;;;6.63;2.80;;;2.30;99.90;;;;;;5032749;28;20287;-54
2021/12/09 08:17:59;;;;;;;13.63;2.90;;;2.40;99.90;;;;;;5030778;28;20231;-54
2021/12/09 08:20:26;;;;;;;7.13;2.73;;;2.40;99.90;;;;;;5030870;28;20253;-54
2021/12/09 08:22:53;;;;;;;6.17;3.10;;;2.50;99.90;;;;;;5035093;28;20196;-53
2021/12/09 08:25:21;;;;;;;9.00;3.40;;;2.40;99.90;;;;;;5035382;28;20291;-53
2021/12/09 08:27:49;;;;;;;7.77;4.00;;;2.60;99.90;;;;;;5034649;28;20262;-51
2021/12/09 08:30:20;;;;;;;12.47;3.30;;;2.60;99.90;;;;;;5030677;28;20338;-52
2021/12/09 08:33:08;;;;;;;7.70;3.27;;;2.60;99.90;;;;;;5035163;28;20232;-52
2021/12/09 08:35:36;;;;;;;8.77;3.50;;;2.60;99.90;;;;;;5035635;28;20336;-53
2021/12/09 08:38:04;;;;;;;7.80;3.37;;;2.60;99.90;;;;;;5033606;28;20204;-51
2021/12/09 08:40:32;;;;;;;8.53;3.27;;;2.70;99.90;;;;;;5035032;28;20647;-55
2021/12/09 08:42:59;;;;;;;7.57;3.13;;;2.70;99.90;;;;;;5034937;28;20208;-53
2021/12/09 08:45:26;;;;;;;5.20;3.07;;;2.70;99.90;;;;;;5036509;28;20208;-52
2021/12/09 08:47:53;;;;;;;6.20;3.07;;;2.80;99.90;;;;;;5037604;28;20211;-53
2021/12/09 08:50:23;;;;;;;5.77;3.63;;;2.60;99.90;;;;;;5032144;28;20220;-53
2021/12/09 08:52:52;;;;;;;11.77;3.40;;;2.60;99.90;;;;;;5020428;28;20212;-54
2021/12/09 08:55:21;;;;;;;10.83;3.37;;;2.60;99.90;;;;;;5037180;28;20818;-54
2021/12/09 08:57:49;;;;;;;8.83;3.70;;;2.80;99.90;;;;;;5037477;28;20200;-53
2021/12/09 09:00:17;;;;;;;13.00;3.50;;;2.80;99.90;;;;;;5036359;28;20262;-54
2021/12/09 09:02:46;;;;;;;8.47;3.23;;;2.90;99.90;;;;;;5032731;28;20216;-54
2021/12/09 09:05:14;;;;;;;4.07;2.87;;;3.00;99.90;;;;;;5031338;28;20243;-54
2021/12/09 09:07:42;;;;;;;11.37;3.33;;;3.10;99.90;;;;;;5036064;28;20744;-53
2021/12/09 09:10:10;;;;;;;3.93;2.83;;;3.10;99.90;;;;;;5029956;28;20305;-53
2021/12/09 09:12:37;;;;;;;7.50;3.30;;;3.20;99.90;;;;;;5033367;28;20714;-51
2021/12/09 09:15:07;;;;;;;3.77;2.60;;;3.20;99.90;;;;;;5028644;28;20698;-53
2021/12/09 09:17:35;;;;;;;7.63;3.60;;;3.30;99.90;;;;;;5035719;28;20669;-54
2021/12/09 09:20:08;;;;;;;5.73;3.07;;;3.30;99.90;;;;;;5014443;28;20345;-57
2021/12/09 09:22:39;;;;;;;8.00;2.87;;;3.30;99.90;;;;;;5017357;28;20270;-60
2021/12/09 09:25:08;;;;;;;8.23;3.07;;;3.60;99.90;;;;;;5035623;28;20297;-61
2021/12/09 09:27:35;;;;;;;7.50;2.80;;;3.70;99.90;;;;;;5034105;28;20259;-59
2021/12/09 09:30:05;;;;;;;6.10;2.80;;;3.70;99.90;;;;;;5034101;28;20313;-61
2021/12/09 09:32:34;;;;;;;4.27;2.43;;;3.70;99.90;;;;;;5032282;28;20363;-62
2021/12/09 09:35:01;;;;;;;7.00;3.40;;;3.70;99.90;;;;;;5034067;28;20643;-60
2021/12/09 09:37:28;;;;;;;5.77;3.00;;;3.80;99.90;;;;;;5031068;28;20208;-60
2021/12/09 09:40:05;;;;;;;5.63;3.00;;;3.70;99.90;;;;;;5033302;28;20295;-61
2021/12/09 09:42:57;;;;;;;11.93;3.97;;;3.70;99.90;;;;;;5034351;28;20227;-61
2021/12/09 09:45:19;;;;;;;3.87;2.70;;;3.80;99.90;;;;;;5032530;28;20673;-59
2021/12/09 09:47:47;;;;;;;5.27;3.07;;;3.70;99.90;;;;;;5034273;28;21795;-62
2021/12/09 09:50:14;;;;;;;8.17;3.03;;;3.80;99.90;;;;;;5032325;28;20646;-62
2021/12/09 09:52:41;;;;;;;8.70;3.60;;;3.70;99.90;;;;;;5034655;28;20261;-62
2021/12/09 09:55:10;;;;;;;9.00;3.03;;;3.80;99.90;;;;;;5034002;28;20236;-63
2021/12/09 09:57:37;;;;;;;4.80;2.40;;;3.70;99.90;;;;;;5032630;28;20209;-61
2021/12/09 10:00:10;;;;;;;11.43;3.30;;;3.80;99.90;;;;;;5032224;28;20212;-61
2021/12/09 10:02:37;;;;;;;6.47;3.40;;;3.90;99.90;;;;;;5032065;28;20318;-59
2021/12/09 10:05:07;;;;;;;5.47;2.83;;;3.90;99.90;;;;;;5011879;28;20220;-60
2021/12/09 10:07:35;;;;;;;6.30;3.17;;;3.90;99.90;;;;;;5032411;28;20205;-60
2021/12/09 10:10:05;;;;;;;8.07;3.57;;;3.90;99.90;;;;;;5032674;28;20265;-61
2021/12/09 10:12:32;;;;;;;9.87;3.23;;;4.10;99.90;;;;;;5014905;28;20231;-60
2021/12/09 10:14:58;;;;;;;5.77;3.00;;;4.20;99.90;;;;;;5031059;28;20263;-59
2021/12/09 10:17:27;;;;;;;11.17;3.57;;;4.10;99.90;;;;;;5030075;28;20302;-63
2021/12/09 10:20:09;;;;;;;5.47;2.93;;;4.10;99.90;;;;;;5029037;28;20511;-61
2021/12/09 10:22:37;;;;;;;6.33;3.70;;;4.10;99.90;;;;;;5034009;28;20201;-61
2021/12/09 10:25:23;;;;;;;10.73;3.67;;;4.10;99.90;;;;;;5030202;28;20233;-61
2021/12/09 10:28:01;;;;;;;7.53;3.43;;;4.20;99.90;;;;;;5032645;28;20211;-59
2021/12/09 10:30:29;;;;;;;7.50;3.33;;;4.30;99.90;;;;;;5010770;28;20239;-61
2021/12/09 10:33:02;;;;;;;9.30;3.80;;;4.30;99.90;;;;;;5029152;28;20206;-62
2021/12/09 10:35:29;;;;;;;10.03;4.13;;;4.30;99.90;;;;;;5028439;28;20197;-61
2021/12/09 10:37:56;;;;;;;10.50;3.73;;;4.30;99.90;;;;;;5016857;28;20211;-60
2021/12/09 10:40:30;;;;;;;8.20;3.83;;;4.40;99.90;;;;;;5027817;28;20769;-60
2021/12/09 10:43:03;;;;;;;6.63;3.63;;;4.30;99.90;;;;;;5009721;28;20205;-61
2021/12/09 10:45:34;;;;;;;9.43;4.20;;;4.40;99.90;;;;;;5026215;28;20642;-60
2021/12/09 10:48:19;;;;;;;7.60;4.20;;;4.40;99.90;;;;;;5014617;28;21173;-59
2021/12/09 10:56:02;;;;;;;5.10;3.70;;;4.30;99.90;;;;;;5033006;28;20237;-63
2021/12/09 10:58:31;;;;;;;5.43;3.47;;;4.40;99.90;;;;;;5036042;28;20198;-62
2021/12/09 11:01:10;;;;;;;7.37;4.10;;;4.60;99.90;;;;;;5034435;28;20235;-60
2021/12/09 11:03:43;;;;;;;10.50;4.50;;;4.60;99.90;;;;;;5035290;28;20262;-62
2021/12/09 11:06:14;;;;;;;7.80;4.10;;;4.50;99.90;;;;;;5016992;28;20286;-61
2021/12/09 11:08:49;;;;;;;7.13;5.77;;;4.60;99.90;;;;;;5033183;28;20277;-62
2021/12/09 11:11:19;;;;;;;8.17;3.70;;;4.60;99.90;;;;;;5035603;28;20306;-59
2021/12/09 11:13:51;;;;;;;9.37;4.23;;;4.50;99.90;;;;;;5035339;28;20802;-62
2021/12/09 11:16:31;;;;;;;6.17;4.27;;;4.50;99.90;;;;;;5035599;28;20246;-60
2021/12/09 11:19:24;;;;;;;7.17;4.43;;;4.50;99.90;;;;;;5033802;28;20399;-60
2021/12/09 11:21:58;;;;;;;7.57;4.20;;;4.60;99.90;;;;;;5033201;28;20274;-61
2021/12/09 11:24:31;;;;;;;9.17;4.30;;;4.60;99.90;;;;;;5015275;28;20236;-61
2021/12/09 11:27:03;;;;;;;8.07;4.43;;;4.70;99.90;;;;;;5035547;28;20235;-61
2021/12/09 11:29:34;;;;;;;11.77;4.73;;;4.70;99.90;;;;;;5038022;28;20200;-61
2021/12/09 11:34:48;;;;;;;10.80;4.80;;;4.60;99.90;;;;;;5036473;28;20208;-61
2021/12/09 11:40:06;;;;;;;6.77;4.30;;;4.60;99.90;;;;;;5037031;28;20219;-61
2021/12/09 11:42:47;;;;;;;9.50;4.10;;;4.70;99.90;;;;;;5032896;28;20614;-60
2021/12/09 11:45:17;;;;;;;6.30;4.23;;;4.70;99.90;;;;;;5034185;28;20234;-62
2021/12/09 11:47:47;;;;;;;9.40;5.00;;;4.70;99.90;;;;;;5032925;28;20212;-61
2021/12/09 11:50:23;;;;;;;8.80;4.60;;;4.70;99.90;;;;;;5032964;28;20663;-60
2021/12/09 11:52:52;;;;;;;6.23;3.90;;;4.60;99.90;;;;;;5029290;28;20351;-52
2021/12/09 11:55:27;;;;;;;7.10;4.47;;;4.70;99.90;;;;;;5032281;28;20318;-54
2021/12/09 11:58:02;;;;;;;8.40;5.07;;;4.70;99.90;;;;;;5033680;28;20579;-52
2021/12/09 12:12:44;;;;;;;9.57;5.57;;;4.80;99.90;;;;;;5029934;28;20319;-52
2021/12/09 12:16:05;;;;;;;7.30;5.23;;;4.80;99.90;;;;;;5030097;28;20204;-53
2021/12/09 12:21:36;;;;;;;10.27;5.60;;;4.80;99.90;;;;;;5030628;28;20248;-54
2021/12/09 12:27:11;;;;;;;13.10;5.50;;;4.90;99.90;;;;;;5028505;28;20220;-54
2021/12/09 12:32:57;;;;;;;13.73;5.20;;;4.90;99.90;;;;;;5028809;28;20395;-52
2021/12/09 12:38:20;;;;;;;8.73;6.00;;;5.00;99.90;;;;;;5026015;28;20229;-53
2021/12/09 12:40:55;;;;;;;7.27;5.07;;;5.10;99.90;;;;;;5031265;28;20577;-54
2021/12/09 12:43:29;;;;;;;6.50;5.20;;;5.10;99.90;;;;;;5032665;28;20215;-54
2021/12/09 12:46:18;;;;;;;10.47;5.60;;;5.10;99.90;;;;;;5030185;28;20278;-54
2021/12/09 12:49:03;;;;;;;12.47;5.97;;;5.10;99.90;;;;;;5030207;28;20340;-53
2021/12/09 12:51:38;;;;;;;9.23;6.00;;;5.10;99.90;;;;;;5034674;28;20294;-54
2021/12/09 12:54:20;;;;;;;9.27;6.10;;;5.10;99.90;;;;;;5016163;28;20554;-54
2021/12/09 12:56:55;;;;;;;9.23;5.90;;;5.20;99.90;;;;;;5034611;28;20256;-55
2021/12/09 12:59:34;;;;;;;10.20;6.07;;;5.20;99.90;;;;;;5029044;28;20207;-53
2021/12/09 13:02:07;;;;;;;8.80;5.77;;;5.30;99.90;;;;;;5032294;28;20214;-53
2021/12/09 13:10:44;;;;;;;15.53;6.43;;;5.30;99.90;;;;;;5026479;28;20204;-54
2021/12/09 13:13:36;;;;;;;11.90;5.77;;;5.30;99.90;;;;;;5034679;28;20227;-53
2021/12/09 13:16:06;;;;;;;8.13;5.57;;;5.30;99.90;;;;;;5028036;28;20207;-57
2021/12/09 13:18:46;;;;;;;10.83;6.57;;;5.20;99.90;;;;;;5030550;28;20724;-53
2021/12/09 13:21:35;;;;;;;11.30;6.30;;;5.30;99.90;;;;;;5020840;28;20286;-55
2021/12/09 13:24:38;;;;;;;8.83;6.23;;;5.30;99.90;;;;;;5032961;28;20664;-55
2021/12/09 13:27:44;;;;;;;12.27;6.70;;;5.30;99.90;;;;;;4996447;28;20353;-52
2021/12/09 13:34:21;;;;;;;10.27;6.63;;;5.40;99.90;;;;;;5032694;28;20200;-53
2021/12/09 13:47:29;;;;;;;10.90;6.30;;;5.40;99.90;;;;;;5034825;28;20607;-54
2021/12/09 13:55:29;;;;;;;8.63;6.37;;;5.40;99.90;;;;;;5037208;28;20345;-52
2021/12/09 13:58:01;;;;;;;14.07;7.13;;;5.40;99.90;;;;;;5037136;28;20676;-53
2021/12/09 14:00:32;;;;;;;10.00;6.63;;;5.50;99.90;;;;;;5038524;28;20307;-54
2021/12/09 14:03:04;;;;;;;12.43;6.80;;;5.40;99.90;;;;;;5037368;28;20231;-52
2021/12/09 14:05:54;;;;;;;9.63;6.10;;;5.40;99.90;;;;;;5033259;28;21289;-53
2021/12/09 14:08:37;;;;;;;9.30;6.83;;;5.40;99.90;;;;;;5036479;28;20203;-54
2021/12/09 14:11:27;;;;;;;11.40;6.63;;;5.40;99.90;;;;;;5033194;28;20212;-54
2021/12/09 14:14:03;;;;;;;8.63;5.43;;;5.40;99.90;;;;;;5030729;28;20585;-52